Time;durP1;ratioP1;P1;durP2;ratioP2;P2;SDS_P1;SDS_P2;PMS_P1;PMS_P2;Temp;Humidity;BMP_temperature;BMP_pressure;BME280_temperature;BME280_humidity;BME280_pressure;Samples;Min_cycle;Max_cycle;Signal;HPM_P1;HPM_P2
2023/04/14 00:00:58;;;;;;;;;;;9.30;99.90;;;;;;4915084;29;19946;-73
2023/04/14 00:03:25;;;;;;;;;;;9.30;99.90;;;;;;4920945;29;19918;-73
2023/04/14 00:05:50;;;;;;;;;;;9.30;99.90;;;;;;4910905;29;20002;-74
2023/04/14 00:08:17;;;;;;;;;;;9.30;99.90;;;;;;4915399;29;20005;-74
2023/04/14 00:10:43;;;;;;;;;;;9.30;99.90;;;;;;4916081;29;20431;-74
2023/04/14 00:13:09;;;;;;;;;;;9.40;99.90;;;;;;4930541;29;20039;-74
2023/04/14 00:15:34;;;;;;;;;;;9.40;99.90;;;;;;4916251;29;19933;-73
2023/04/14 00:18:00;;;;;;;;;;;9.40;99.90;;;;;;4930940;29;19922;-74
2023/04/14 00:20:26;;;;;;;;;;;9.30;99.90;;;;;;4899503;29;19926;-74
2023/04/14 00:22:51;;;;;;;;;;;9.40;99.90;;;;;;4904169;29;19915;-74
2023/04/14 00:25:17;;;;;;;;;;;9.30;99.90;;;;;;4918952;29;20517;-74
2023/04/14 00:27:43;;;;;;;;;;;9.30;99.90;;;;;;4941336;29;19915;-74
2023/04/14 00:30:09;;;;;;;;;;;9.30;99.90;;;;;;4917880;29;19922;-74
2023/04/14 00:32:35;;;;;;;;;;;9.30;99.90;;;;;;4941512;29;19960;-74
2023/04/14 00:35:02;;;;;;;;;;;9.30;99.90;;;;;;4922148;29;19966;-73
2023/04/14 00:37:28;;;;;;;;;;;9.30;99.90;;;;;;4923596;29;19915;-74
2023/04/14 00:39:55;;;;;;;;;;;9.30;99.90;;;;;;4926666;29;19910;-73
2023/04/14 00:42:22;;;;;;;;;;;9.30;99.90;;;;;;4912356;29;19912;-74
2023/04/14 00:44:52;;;;;;;;;;;9.30;99.90;;;;;;4909895;29;19970;-73
2023/04/14 00:47:18;;;;;;;;;;;9.30;99.90;;;;;;4918095;29;19915;-74
2023/04/14 00:49:43;;;;;;;;;;;9.30;99.90;;;;;;4924716;29;19915;-74
2023/04/14 00:52:09;;;;;;;;;;;9.30;99.90;;;;;;4944273;29;19911;-74
2023/04/14 00:54:35;;;;;;;;;;;9.30;99.90;;;;;;4925463;29;19953;-73
2023/04/14 00:57:00;;;;;;;;;;;9.30;99.90;;;;;;4905898;29;19911;-73
2023/04/14 00:59:28;;;;;;;;;;;9.30;99.90;;;;;;4925420;29;19950;-74
2023/04/14 01:01:54;;;;;;;;;;;9.30;99.90;;;;;;4915334;29;19915;-73
2023/04/14 01:04:20;;;;;;;;;;;9.30;99.90;;;;;;4922475;29;19922;-73
2023/04/14 01:06:45;;;;;;;;;;;9.30;99.90;;;;;;4917669;29;19926;-73
2023/04/14 01:09:11;;;;;;;;;;;9.30;99.90;;;;;;4936115;29;19919;-73
2023/04/14 01:11:49;;;;;;;;;;;9.30;99.90;;;;;;4929754;28;19918;-73
2023/04/14 01:14:34;;;;;;;;;;;9.30;99.90;;;;;;4924130;29;19915;-74
2023/04/14 01:17:00;;;;;;;;;;;9.30;99.90;;;;;;4924517;29;19922;-74
2023/04/14 01:19:46;;;;;;;;;;;9.20;99.90;;;;;;4910357;29;19993;-73
2023/04/14 01:22:11;;;;;;;;;;;9.20;99.90;;;;;;4906980;29;20018;-74
2023/04/14 01:24:37;;;;;;;;;;;9.20;99.90;;;;;;4914316;29;20013;-73
2023/04/14 01:27:12;;;;;;;;;;;9.10;99.90;;;;;;4931479;29;19918;-73
2023/04/14 01:29:56;;;;;;;;;;;9.10;99.90;;;;;;4931475;29;19915;-74
2023/04/14 01:32:22;;;;;;;;;;;9.00;99.90;;;;;;4936724;28;20658;-73
2023/04/14 01:34:53;;;;;;;;;;;8.90;99.90;;;;;;4927031;29;19925;-74
2023/04/14 01:37:30;;;;;;;;;;;8.90;99.90;;;;;;4913403;29;19915;-73
2023/04/14 01:39:58;;;;;;;;;;;9.00;99.90;;;;;;4913305;29;19915;-74
2023/04/14 01:42:25;;;;;;;;;;;9.00;99.90;;;;;;4917586;29;20308;-74
2023/04/14 01:44:51;;;;;;;;;;;9.00;99.90;;;;;;4919828;29;20005;-74
2023/04/14 01:47:17;;;;;;;;;;;9.00;99.90;;;;;;4921195;29;19940;-73
2023/04/14 01:49:42;;;;;;;;;;;8.90;99.90;;;;;;4917620;29;19934;-73
2023/04/14 01:52:08;;;;;;;;;;;8.80;99.90;;;;;;4921862;29;19978;-74
2023/04/14 01:54:35;;;;;;;;;;;8.80;99.90;;;;;;4897356;29;19911;-74
2023/04/14 01:57:01;;;;;;;;;;;8.90;99.90;;;;;;4912152;29;19971;-74
2023/04/14 01:59:27;;;;;;;;;;;8.80;99.90;;;;;;4936051;29;19910;-74
2023/04/14 02:01:54;;;;;;;;;;;8.70;99.90;;;;;;4915431;29;20339;-73
2023/04/14 02:04:20;;;;;;;;;;;8.70;99.90;;;;;;4930115;29;19923;-74
2023/04/14 02:06:46;;;;;;;;;;;8.70;99.90;;;;;;4944647;29;19919;-74
2023/04/14 02:09:11;;;;;;;;;;;8.60;99.90;;;;;;4919071;29;19919;-74
2023/04/14 02:11:37;;;;;;;;;;;8.50;99.90;;;;;;4919943;29;19915;-73
2023/04/14 02:14:03;;;;;;;;;;;8.50;99.90;;;;;;4938336;29;19918;-73
2023/04/14 02:16:29;;;;;;;;;;;8.40;99.90;;;;;;4932944;29;19914;-73
2023/04/14 02:18:56;;;;;;;;;;;8.50;99.90;;;;;;4916366;29;19975;-73
2023/04/14 02:21:22;;;;;;;;;;;8.40;99.90;;;;;;4930461;29;19923;-74
2023/04/14 02:23:47;;;;;;;;;;;8.30;99.90;;;;;;4917692;29;20387;-73
2023/04/14 02:26:14;;;;;;;;;;;8.30;99.90;;;;;;4920724;29;19927;-74
2023/04/14 02:28:50;;;;;;;;;;;8.30;99.90;;;;;;4937657;29;20399;-73
2023/04/14 02:31:20;;;;;;;;;;;8.20;99.90;;;;;;4934293;29;19990;-73
2023/04/14 02:33:45;;;;;;;;;;;8.10;99.90;;;;;;4922186;29;19922;-73
2023/04/14 02:36:27;;;;;;;;;;;8.20;99.90;;;;;;4921438;29;19923;-73
2023/04/14 02:39:13;;;;;;;;;;;8.10;99.90;;;;;;4926675;29;19915;-73
2023/04/14 02:41:41;;;;;;;;;;;8.10;99.90;;;;;;4934530;29;19957;-74
2023/04/14 02:44:13;;;;;;;;;;;8.10;99.90;;;;;;4933166;28;19954;-74
2023/04/14 02:46:40;;;;;;;;;;;8.10;99.90;;;;;;4916999;29;20497;-74
2023/04/14 02:49:06;;;;;;;;;;;8.10;99.90;;;;;;4937777;29;19921;-73
2023/04/14 02:51:33;;;;;;;;;;;8.10;99.90;;;;;;4919078;29;19915;-74
2023/04/14 02:53:58;;;;;;;;;;;8.00;99.90;;;;;;4926463;29;19972;-74
2023/04/14 02:56:24;;;;;;;;;;;8.00;99.90;;;;;;4943129;28;20019;-73
2023/04/14 02:58:50;;;;;;;;;;;8.00;99.90;;;;;;4928148;29;20002;-74
2023/04/14 03:01:15;;;;;;;;;;;8.00;99.90;;;;;;4917549;29;19923;-74
2023/04/14 03:03:41;;;;;;;;;;;7.90;99.90;;;;;;4901133;29;20045;-74
2023/04/14 03:06:07;;;;;;;;;;;7.90;99.90;;;;;;4907751;29;19918;-74
2023/04/14 03:08:33;;;;;;;;;;;7.90;99.90;;;;;;4910029;29;19926;-73
2023/04/14 03:10:58;;;;;;;;;;;7.90;99.90;;;;;;4931105;29;19997;-74
2023/04/14 03:13:24;;;;;;;;;;;8.00;99.90;;;;;;4943777;29;20009;-74
2023/04/14 03:15:50;;;;;;;;;;;7.90;99.90;;;;;;4931477;29;20655;-74
2023/04/14 03:18:17;;;;;;;;;;;7.90;99.90;;;;;;4911833;29;19914;-74
2023/04/14 03:20:44;;;;;;;;;;;7.90;99.90;;;;;;4939891;29;19918;-74
2023/04/14 03:23:11;;;;;;;;;;;7.70;99.90;;;;;;4930925;29;20009;-74
2023/04/14 03:25:36;;;;;;;;;;;7.80;99.90;;;;;;4926435;29;19922;-74
2023/04/14 03:28:02;;;;;;;;;;;7.70;99.90;;;;;;4936123;29;20395;-74
2023/04/14 03:30:29;;;;;;;;;;;7.70;99.90;;;;;;4942484;29;20556;-74
2023/04/14 03:32:55;;;;;;;;;;;7.70;99.90;;;;;;4944459;28;19919;-74
2023/04/14 03:35:21;;;;;;;;;;;7.60;99.90;;;;;;4938669;29;19925;-74
2023/04/14 03:37:47;;;;;;;;;;;7.50;99.90;;;;;;4903180;29;19915;-73
2023/04/14 03:40:13;;;;;;;;;;;7.60;99.90;;;;;;4920049;29;20327;-74
2023/04/14 03:42:39;;;;;;;;;;;7.50;99.90;;;;;;4917912;29;19966;-73
2023/04/14 03:45:06;;;;;;;;;;;7.40;99.90;;;;;;4940985;29;19968;-74
2023/04/14 03:47:32;;;;;;;;;;;7.40;99.90;;;;;;4934462;29;19965;-73
2023/04/14 03:49:58;;;;;;;;;;;7.30;99.90;;;;;;4928550;29;19920;-74
2023/04/14 03:52:24;;;;;;;;;;;7.20;99.90;;;;;;4933089;28;19970;-73
2023/04/14 03:54:51;;;;;;;;;;;7.20;99.90;;;;;;4931785;29;19919;-74
2023/04/14 03:57:16;;;;;;;;;;;7.20;99.90;;;;;;4939921;28;19914;-74
2023/04/14 03:59:42;;;;;;;;;;;7.30;99.90;;;;;;4945401;29;19914;-73
2023/04/14 04:02:08;;;;;;;;;;;7.20;99.90;;;;;;4935829;28;20384;-73
2023/04/14 04:04:35;;;;;;;;;;;7.30;99.90;;;;;;4926050;29;19923;-73
2023/04/14 04:07:01;;;;;;;;;;;7.30;99.90;;;;;;4923155;29;20364;-74
2023/04/14 04:09:27;;;;;;;;;;;7.20;99.90;;;;;;4936248;29;19914;-74
2023/04/14 04:11:52;;;;;;;;;;;7.10;99.90;;;;;;4917391;29;20294;-74
2023/04/14 04:14:19;;;;;;;;;;;7.10;99.90;;;;;;4924094;29;20303;-73
2023/04/14 04:16:46;;;;;;;;;;;7.20;99.90;;;;;;4924450;29;20378;-73
2023/04/14 04:19:12;;;;;;;;;;;7.10;99.90;;;;;;4919804;29;19930;-73
2023/04/14 04:21:41;;;;;;;;;;;7.10;99.90;;;;;;4941552;29;19914;-74
2023/04/14 04:24:06;;;;;;;;;;;7.10;99.90;;;;;;4920990;29;19925;-74
2023/04/14 04:26:34;;;;;;;;;;;7.10;99.90;;;;;;4923454;29;19922;-74
2023/04/14 04:29:01;;;;;;;;;;;7.00;99.90;;;;;;4941059;29;20318;-74
2023/04/14 04:31:26;;;;;;;;;;;7.00;99.90;;;;;;4934114;29;19918;-74
2023/04/14 04:33:52;;;;;;;;;;;6.90;99.90;;;;;;4918855;29;19911;-74
2023/04/14 04:36:18;;;;;;;;;;;6.90;99.90;;;;;;4923050;29;20387;-74
2023/04/14 04:38:43;;;;;;;;;;;6.80;99.90;;;;;;4940403;29;19965;-74
2023/04/14 04:41:22;;;;;;;;;;;6.80;99.90;;;;;;4916087;29;20026;-74
2023/04/14 04:43:47;;;;;;;;;;;6.90;99.90;;;;;;4917498;29;19918;-73
2023/04/14 04:46:32;;;;;;;;;;;6.90;99.90;;;;;;4924533;29;20716;-73
2023/04/14 04:48:57;;;;;;;;;;;6.90;99.90;;;;;;4933056;29;19911;-74
2023/04/14 04:51:24;;;;;;;;;;;6.90;99.90;;;;;;4944240;29;19977;-74
2023/04/14 04:53:50;;;;;;;;;;;6.90;99.90;;;;;;4932559;29;19915;-74
2023/04/14 04:56:15;;;;;;;;;;;6.80;99.90;;;;;;4938181;29;19939;-74
2023/04/14 04:58:41;;;;;;;;;;;6.90;99.90;;;;;;4945088;28;20397;-74
2023/04/14 05:01:08;;;;;;;;;;;6.90;99.90;;;;;;4947767;28;20351;-74
2023/04/14 05:03:33;;;;;;;;;;;6.90;99.90;;;;;;4926397;29;19918;-74
2023/04/14 05:05:59;;;;;;;;;;;7.00;99.90;;;;;;4943227;29;19918;-74
2023/04/14 05:08:24;;;;;;;;;;;7.00;99.90;;;;;;4941926;29;19915;-73
2023/04/14 05:10:50;;;;;;;;;;;6.90;99.90;;;;;;4930226;29;20275;-73
2023/04/14 05:13:16;;;;;;;;;;;7.00;99.90;;;;;;4947515;29;20323;-73
2023/04/14 05:15:42;;;;;;;;;;;7.10;99.90;;;;;;4944739;29;20350;-73
2023/04/14 05:18:07;;;;;;;;;;;7.10;99.90;;;;;;4930705;29;19910;-73
2023/04/14 05:20:33;;;;;;;;;;;7.10;99.90;;;;;;4928840;29;19922;-73
2023/04/14 05:22:59;;;;;;;;;;;7.00;99.90;;;;;;4942172;29;19914;-73
2023/04/14 05:25:25;;;;;;;;;;;7.00;99.90;;;;;;4930206;29;19929;-73
2023/04/14 05:27:51;;;;;;;;;;;6.90;99.90;;;;;;4945973;28;19915;-73
2023/04/14 05:30:16;;;;;;;;;;;6.90;99.90;;;;;;4946943;29;19918;-74
2023/04/14 05:32:42;;;;;;;;;;;6.80;99.90;;;;;;4927892;29;19929;-73
2023/04/14 05:35:08;;;;;;;;;;;6.80;99.90;;;;;;4943645;29;19922;-73
2023/04/14 05:37:33;;;;;;;;;;;6.80;99.90;;;;;;4913693;29;19914;-73
2023/04/14 05:39:59;;;;;;;;;;;6.70;99.90;;;;;;4927100;29;19918;-73
2023/04/14 05:42:25;;;;;;;;;;;6.80;99.90;;;;;;4926274;29;19918;-73
2023/04/14 05:44:50;;;;;;;;;;;6.80;99.90;;;;;;4947102;29;19918;-73
2023/04/14 05:47:16;;;;;;;;;;;6.80;99.90;;;;;;4941935;29;19926;-73
2023/04/14 05:49:42;;;;;;;;;;;6.80;99.90;;;;;;4945623;29;19926;-73
2023/04/14 05:52:08;;;;;;;;;;;6.80;99.90;;;;;;4927745;29;19921;-74
2023/04/14 05:54:34;;;;;;;;;;;6.90;99.90;;;;;;4948565;28;20342;-73
2023/04/14 05:56:59;;;;;;;;;;;7.00;99.90;;;;;;4926973;29;19921;-74
2023/04/14 05:59:26;;;;;;;;;;;7.00;99.90;;;;;;4941301;29;19914;-74
2023/04/14 06:01:51;;;;;;;;;;;7.00;99.90;;;;;;4944289;29;20017;-74
2023/04/14 06:04:19;;;;;;;;;;;7.10;99.90;;;;;;4912759;29;20333;-74
2023/04/14 06:06:44;;;;;;;;;;;7.10;99.90;;;;;;4950645;29;19926;-74
2023/04/14 06:09:10;;;;;;;;;;;7.10;99.90;;;;;;4924913;29;19914;-74
2023/04/14 06:11:36;;;;;;;;;;;7.10;99.90;;;;;;4938438;29;19922;-74
2023/04/14 06:14:04;;;;;;;;;;;7.20;99.90;;;;;;4911926;29;20005;-74
2023/04/14 06:16:29;;;;;;;;;;;7.30;99.90;;;;;;4943305;29;19915;-73
2023/04/14 06:18:55;;;;;;;;;;;7.30;99.90;;;;;;4942996;28;19915;-73
2023/04/14 06:21:21;;;;;;;;;;;7.30;99.90;;;;;;4924727;29;19938;-74
2023/04/14 06:23:46;;;;;;;;;;;7.40;99.90;;;;;;4922769;29;19915;-74
2023/04/14 06:26:12;;;;;;;;;;;7.50;99.90;;;;;;4945735;28;20331;-74
2023/04/14 06:28:38;;;;;;;;;;;7.50;99.90;;;;;;4916715;29;19921;-74
2023/04/14 06:31:04;;;;;;;;;;;7.50;99.90;;;;;;4913073;29;19921;-73
2023/04/14 06:33:30;;;;;;;;;;;7.40;99.90;;;;;;4918212;29;19988;-73
2023/04/14 06:35:56;;;;;;;;;;;7.50;99.90;;;;;;4942085;28;19970;-73
2023/04/14 06:38:23;;;;;;;;;;;7.60;99.90;;;;;;4937903;29;19922;-73
2023/04/14 06:40:49;;;;;;;;;;;7.70;99.90;;;;;;4931845;29;19917;-74
2023/04/14 06:43:16;;;;;;;;;;;7.70;99.90;;;;;;4934313;29;19922;-73
2023/04/14 06:45:42;;;;;;;;;;;7.60;99.90;;;;;;4923826;29;19922;-73
2023/04/14 06:48:08;;;;;;;;;;;7.70;99.90;;;;;;4939286;29;20204;-73
2023/04/14 06:50:33;;;;;;;;;;;7.60;99.90;;;;;;4942448;29;20009;-73
2023/04/14 06:52:59;;;;;;;;;;;7.70;99.90;;;;;;4905580;29;19964;-73
2023/04/14 06:55:24;;;;;;;;;;;7.80;99.90;;;;;;4935957;29;19963;-73
2023/04/14 06:57:50;;;;;;;;;;;7.90;99.90;;;;;;4926617;29;19910;-73
2023/04/14 07:00:16;;;;;;;;;;;7.90;99.90;;;;;;4937779;29;20244;-73
2023/04/14 07:02:41;;;;;;;;;;;7.90;99.90;;;;;;4919801;29;19914;-73
2023/04/14 07:05:07;;;;;;;;;;;8.00;99.90;;;;;;4953471;29;19946;-74
2023/04/14 07:07:34;;;;;;;;;;;7.90;99.90;;;;;;4925825;29;20282;-74
2023/04/14 07:09:59;;;;;;;;;;;7.90;99.90;;;;;;4941122;29;19926;-74
2023/04/14 07:12:25;;;;;;;;;;;8.00;99.90;;;;;;4935629;29;20385;-74
2023/04/14 07:14:51;;;;;;;;;;;8.00;99.90;;;;;;4937726;29;20016;-74
2023/04/14 07:17:17;;;;;;;;;;;8.10;99.90;;;;;;4941504;29;20035;-74
2023/04/14 07:19:43;;;;;;;;;;;8.20;99.90;;;;;;4907574;29;20087;-74
2023/04/14 07:22:09;;;;;;;;;;;8.20;99.90;;;;;;4935731;29;20001;-74
2023/04/14 07:24:35;;;;;;;;;;;8.20;99.90;;;;;;4923455;29;19985;-73
2023/04/14 07:27:02;;;;;;;;;;;8.30;99.90;;;;;;4931058;29;19954;-74
2023/04/14 07:29:28;;;;;;;;;;;8.30;99.90;;;;;;4942329;28;19918;-74
2023/04/14 07:31:54;;;;;;;;;;;8.40;99.90;;;;;;4941963;28;19915;-74
2023/04/14 07:34:20;;;;;;;;;;;8.40;99.90;;;;;;4916794;29;19968;-74
2023/04/14 07:36:47;;;;;;;;;;;8.50;99.90;;;;;;4925431;29;19914;-74
2023/04/14 07:39:12;;;;;;;;;;;8.60;99.90;;;;;;4951505;29;19914;-74
2023/04/14 07:41:38;;;;;;;;;;;8.60;99.90;;;;;;4946552;29;19930;-74
2023/04/14 07:44:04;;;;;;;;;;;8.70;99.90;;;;;;4931261;29;19922;-74
2023/04/14 07:46:30;;;;;;;;;;;8.80;99.90;;;;;;4924067;29;19919;-74
2023/04/14 07:48:56;;;;;;;;;;;8.90;99.90;;;;;;4943364;29;20399;-74
2023/04/14 07:51:21;;;;;;;;;;;8.90;99.90;;;;;;4939980;29;20027;-74
2023/04/14 07:53:47;;;;;;;;;;;8.90;99.90;;;;;;4945661;28;19915;-74
2023/04/14 07:56:13;;;;;;;;;;;9.00;99.90;;;;;;4944252;29;19910;-73
2023/04/14 07:58:39;;;;;;;;;;;9.00;99.90;;;;;;4923181;29;19922;-74
2023/04/14 08:01:05;;;;;;;;;;;9.10;99.90;;;;;;4926433;29;19911;-74
2023/04/14 08:03:31;;;;;;;;;;;9.10;99.90;;;;;;4928031;29;19919;-75
2023/04/14 08:05:56;;;;;;;;;;;9.20;99.90;;;;;;4921656;29;20240;-74
2023/04/14 08:08:22;;;;;;;;;;;9.20;99.90;;;;;;4947304;29;19914;-75
2023/04/14 08:10:48;;;;;;;;;;;9.30;99.90;;;;;;4935924;29;19914;-74
2023/04/14 08:13:13;;;;;;;;;;;9.40;99.90;;;;;;4921779;29;20275;-74
2023/04/14 08:15:39;;;;;;;;;;;9.50;99.90;;;;;;4928150;29;19991;-74
2023/04/14 08:18:05;;;;;;;;;;;9.40;99.90;;;;;;4940580;29;19973;-74
2023/04/14 08:20:31;;;;;;;;;;;9.50;99.90;;;;;;4937787;29;20049;-74
2023/04/14 08:22:58;;;;;;;;;;;9.60;99.90;;;;;;4955359;29;19972;-74
2023/04/14 08:25:23;;;;;;;;;;;9.60;99.90;;;;;;4952292;29;20275;-74
2023/04/14 08:27:49;;;;;;;;;;;9.60;99.90;;;;;;4949838;29;19942;-73
2023/04/14 08:30:15;;;;;;;;;;;9.70;99.90;;;;;;4938615;28;19966;-73
2023/04/14 08:32:40;;;;;;;;;;;9.70;99.90;;;;;;4911356;29;19966;-74
2023/04/14 08:35:06;;;;;;;;;;;9.80;99.90;;;;;;4937819;29;20016;-74
2023/04/14 08:37:32;;;;;;;;;;;9.90;99.90;;;;;;4943647;28;20418;-74
2023/04/14 08:39:57;;;;;;;;;;;10.00;99.90;;;;;;4929998;29;19914;-73
2023/04/14 08:42:23;;;;;;;;;;;9.90;99.90;;;;;;4942855;29;20193;-74
2023/04/14 08:44:51;;;;;;;;;;;10.10;99.90;;;;;;4927429;29;20319;-74
2023/04/14 08:47:20;;;;;;;;;;;10.20;99.90;;;;;;4929780;29;19916;-74
2023/04/14 08:49:45;;;;;;;;;;;10.20;99.90;;;;;;4948875;29;20250;-74
2023/04/14 08:52:11;;;;;;;;;;;10.20;99.90;;;;;;4950601;28;19919;-74
2023/04/14 08:54:40;;;;;;;;;;;10.30;99.90;;;;;;4929550;29;19910;-74
2023/04/14 08:57:12;;;;;;;;;;;10.30;99.90;;;;;;4915554;29;19994;-74
2023/04/14 08:59:38;;;;;;;;;;;10.40;99.90;;;;;;4927135;29;19910;-74
2023/04/14 09:02:07;;;;;;;;;;;10.30;99.90;;;;;;4952709;28;19934;-74
2023/04/14 09:04:33;;;;;;;;;;;10.50;99.90;;;;;;4926814;29;19976;-74
2023/04/14 09:06:59;;;;;;;;;;;10.50;99.90;;;;;;4904517;29;19915;-74
2023/04/14 09:09:25;;;;;;;;;;;10.60;99.90;;;;;;4944251;29;19915;-75
2023/04/14 09:11:51;;;;;;;;;;;10.60;99.90;;;;;;4922660;29;20308;-73
2023/04/14 09:14:17;;;;;;;;;;;10.70;99.90;;;;;;4948052;29;19974;-74
2023/04/14 09:16:42;;;;;;;;;;;10.70;99.90;;;;;;4931137;29;19918;-74
2023/04/14 09:19:08;;;;;;;;;;;10.70;99.90;;;;;;4953706;29;19918;-74
2023/04/14 09:21:33;;;;;;;;;;;10.80;99.90;;;;;;4934933;29;19919;-74
2023/04/14 09:23:59;;;;;;;;;;;10.90;99.90;;;;;;4910828;29;20327;-74
2023/04/14 09:26:26;;;;;;;;;;;11.00;99.90;;;;;;4919633;29;19923;-74
2023/04/14 09:28:51;;;;;;;;;;;11.00;99.90;;;;;;4931266;29;19914;-73
2023/04/14 09:31:18;;;;;;;;;;;11.00;99.90;;;;;;4919268;29;20248;-73
2023/04/14 09:33:47;;;;;;;;;;;11.00;99.90;;;;;;4948538;29;19996;-74
2023/04/14 09:36:17;;;;;;;;;;;11.10;99.90;;;;;;4951016;29;20651;-73
2023/04/14 09:38:43;;;;;;;;;;;11.10;99.90;;;;;;4926297;29;19918;-73
2023/04/14 09:41:08;;;;;;;;;;;11.10;99.90;;;;;;4922469;29;19910;-74
2023/04/14 09:43:35;;;;;;;;;;;11.10;99.90;;;;;;4935321;29;19915;-74
2023/04/14 09:46:05;;;;;;;;;;;11.10;99.90;;;;;;4941432;29;19918;-73
2023/04/14 09:48:31;;;;;;;;;;;11.10;99.90;;;;;;4927590;29;19954;-73
2023/04/14 09:51:00;;;;;;;;;;;11.10;99.90;;;;;;4947204;29;20001;-74
2023/04/14 09:53:26;;;;;;;;;;;11.30;99.90;;;;;;4942276;29;19919;-74
2023/04/14 09:55:52;;;;;;;;;;;11.30;99.90;;;;;;4945325;28;19914;-75
2023/04/14 09:58:21;;;;;;;;;;;11.40;99.90;;;;;;4943873;29;19922;-73
2023/04/14 10:00:46;;;;;;;;;;;11.50;99.90;;;;;;4929479;29;19921;-74
2023/04/14 10:03:12;;;;;;;;;;;11.50;99.90;;;;;;4913608;29;19919;-74
2023/04/14 10:05:38;;;;;;;;;;;11.70;99.90;;;;;;4927629;29;20034;-73
2023/04/14 10:08:04;;;;;;;;;;;11.70;99.90;;;;;;4945772;29;20362;-73
2023/04/14 10:10:30;;;;;;;;;;;11.80;99.90;;;;;;4928575;29;19918;-73
2023/04/14 10:12:55;;;;;;;;;;;11.90;99.90;;;;;;4940773;29;20312;-74
2023/04/14 10:15:21;;;;;;;;;;;11.90;99.90;;;;;;4929660;29;19997;-74
2023/04/14 10:17:47;;;;;;;;;;;12.00;99.90;;;;;;4939586;28;19925;-73
2023/04/14 10:20:12;;;;;;;;;;;11.90;99.90;;;;;;4922374;29;20001;-73
2023/04/14 10:22:38;;;;;;;;;;;12.00;99.90;;;;;;4928665;29;20061;-73
2023/04/14 10:25:05;;;;;;;;;;;12.00;99.90;;;;;;4921935;29;20506;-74
2023/04/14 10:27:31;;;;;;;;;;;12.00;99.90;;;;;;4929219;29;19922;-73
2023/04/14 10:29:57;;;;;;;;;;;12.10;99.90;;;;;;4931557;29;19922;-74
2023/04/14 10:32:23;;;;;;;;;;;11.90;99.90;;;;;;4915707;29;19915;-74
2023/04/14 10:35:12;;;;;;;;;;;11.90;99.90;;;;;;4947945;29;19941;-74
2023/04/14 10:37:38;;;;;;;;;;;12.00;99.90;;;;;;4925168;29;19918;-74
2023/04/14 10:40:06;;;;;;;;;;;12.10;99.90;;;;;;4927567;29;19953;-74
2023/04/14 10:42:52;;;;;;;;;;;12.00;99.90;;;;;;4930798;29;19918;-74
2023/04/14 10:45:17;;;;;;;;;;;12.10;99.90;;;;;;4941224;29;19926;-73
2023/04/14 10:47:44;;;;;;;;;;;12.20;99.90;;;;;;4945995;28;20211;-73
2023/04/14 10:50:16;;;;;;;;;;;12.20;99.90;;;;;;4941302;29;19910;-73
2023/04/14 10:52:54;;;;;;;;;;;12.20;99.90;;;;;;4924765;29;20018;-73
2023/04/14 10:55:23;;;;;;;;;;;12.30;99.90;;;;;;4927116;29;19953;-73
2023/04/14 10:57:49;;;;;;;;;;;12.40;99.90;;;;;;4929155;29;19914;-73
2023/04/14 11:00:18;;;;;;;;;;;12.50;99.90;;;;;;4944587;29;19910;-73
2023/04/14 11:03:06;;;;;;;;;;;12.50;99.90;;;;;;4919329;29;20013;-74
2023/04/14 11:05:33;;;;;;;;;;;12.50;99.90;;;;;;4932610;29;19918;-73
2023/04/14 11:08:00;;;;;;;;;;;12.50;99.90;;;;;;4941908;29;19910;-73
2023/04/14 11:10:27;;;;;;;;;;;12.50;99.90;;;;;;4937075;29;19918;-74
2023/04/14 11:12:56;;;;;;;;;;;12.50;99.90;;;;;;4932478;29;19922;-74
2023/04/14 11:15:22;;;;;;;;;;;12.60;99.90;;;;;;4940726;28;19922;-74
2023/04/14 11:17:47;;;;;;;;;;;12.60;99.90;;;;;;4945920;29;19914;-74
2023/04/14 11:20:16;;;;;;;;;;;12.70;99.90;;;;;;4928139;29;19917;-74
2023/04/14 11:22:44;;;;;;;;;;;12.60;99.90;;;;;;4948371;29;19918;-73
2023/04/14 11:25:12;;;;;;;;;;;12.60;99.90;;;;;;4944578;29;19934;-74
2023/04/14 11:27:38;;;;;;;;;;;12.60;99.90;;;;;;4906464;29;19914;-74
2023/04/14 11:30:13;;;;;;;;;;;12.70;99.90;;;;;;4932416;29;19929;-74
2023/04/14 11:32:52;;;;;;;;;;;12.70;99.90;;;;;;4911086;29;19910;-74
2023/04/14 11:35:18;;;;;;;;;;;12.70;99.90;;;;;;4933947;29;19921;-73
2023/04/14 11:37:44;;;;;;;;;;;12.80;99.90;;;;;;4948168;29;19914;-73
2023/04/14 11:40:12;;;;;;;;;;;12.80;99.90;;;;;;4939218;29;19918;-73
2023/04/14 11:42:38;;;;;;;;;;;13.00;99.90;;;;;;4918298;29;19914;-73
2023/04/14 11:45:04;;;;;;;;;;;13.00;99.90;;;;;;4934105;29;19918;-73
2023/04/14 11:47:30;;;;;;;;;;;13.00;99.90;;;;;;4928470;29;19923;-73
2023/04/14 11:49:55;;;;;;;;;;;13.10;99.90;;;;;;4943684;29;20365;-73
2023/04/14 11:52:21;;;;;;;;;;;13.10;99.90;;;;;;4950237;29;19915;-73
2023/04/14 11:54:47;;;;;;;;;;;13.10;99.90;;;;;;4947979;28;19970;-73
2023/04/14 11:57:13;;;;;;;;;;;13.10;99.90;;;;;;4945166;29;20406;-73
2023/04/14 11:59:39;;;;;;;;;;;13.10;99.90;;;;;;4939722;29;20221;-73
2023/04/14 12:02:06;;;;;;;;;;;13.10;99.90;;;;;;4920914;29;20579;-73
2023/04/14 12:04:31;;;;;;;;;;;13.10;99.90;;;;;;4923145;29;19969;-73
2023/04/14 12:06:57;;;;;;;;;;;13.00;99.90;;;;;;4936356;29;19915;-73
2023/04/14 12:09:27;;;;;;;;;;;13.10;99.90;;;;;;4928974;29;19918;-73
2023/04/14 12:11:54;;;;;;;;;;;13.20;99.90;;;;;;4920439;29;19929;-73
2023/04/14 12:14:20;;;;;;;;;;;13.50;99.90;;;;;;4911278;29;19979;-73
2023/04/14 12:16:45;;;;;;;;;;;13.50;99.90;;;;;;4925583;29;20251;-73
2023/04/14 12:19:11;;;;;;;;;;;13.80;99.90;;;;;;4951084;29;19918;-73
2023/04/14 12:21:37;;;;;;;;;;;13.90;99.90;;;;;;4929804;29;19921;-73
2023/04/14 12:24:03;;;;;;;;;;;13.80;99.90;;;;;;4911883;29;19950;-73
2023/04/14 12:26:29;;;;;;;;;;;13.80;99.90;;;;;;4952184;29;20311;-73
2023/04/14 12:28:55;;;;;;;;;;;13.60;99.90;;;;;;4921805;29;19915;-73
2023/04/14 12:31:25;;;;;;;;;;;13.60;99.90;;;;;;4926171;29;19910;-73
2023/04/14 12:33:51;;;;;;;;;;;13.60;99.90;;;;;;4912906;29;20295;-74
2023/04/14 12:36:16;;;;;;;;;;;13.70;99.90;;;;;;4943344;29;19914;-74
2023/04/14 12:38:43;;;;;;;;;;;13.80;99.90;;;;;;4947715;28;20009;-73
2023/04/14 12:41:09;;;;;;;;;;;14.10;99.90;;;;;;4942885;29;19945;-73
2023/04/14 12:43:36;;;;;;;;;;;14.40;99.90;;;;;;4920765;29;19922;-73
2023/04/14 12:46:03;;;;;;;;;;;14.70;99.90;;;;;;4930804;29;19923;-73
2023/04/14 12:48:47;;;;;;;;;;;14.90;99.90;;;;;;4938930;28;20587;-73
2023/04/14 12:51:14;;;;;;;;;;;15.00;99.10;;;;;;4935671;29;19914;-73
2023/04/14 12:53:40;;;;;;;;;;;14.90;97.90;;;;;;4907397;29;19977;-73
2023/04/14 12:56:09;;;;;;;;;;;14.90;98.90;;;;;;4948140;28;19974;-73
2023/04/14 12:58:36;;;;;;;;;;;15.40;98.80;;;;;;4943061;29;19949;-73
2023/04/14 13:01:03;;;;;;;;;;;15.50;96.30;;;;;;4909987;29;19921;-73
2023/04/14 13:03:39;;;;;;;;;;;15.60;97.70;;;;;;4901507;29;19919;-73
2023/04/14 13:06:04;;;;;;;;;;;15.90;96.70;;;;;;4935800;29;19914;-73
2023/04/14 13:08:30;;;;;;;;;;;16.10;95.60;;;;;;4923970;29;20251;-73
2023/04/14 13:10:56;;;;;;;;;;;16.30;95.20;;;;;;4919879;29;20484;-73
2023/04/14 13:13:22;;;;;;;;;;;15.90;94.80;;;;;;4951266;29;19925;-73
2023/04/14 13:15:48;;;;;;;;;;;15.70;93.80;;;;;;4941935;29;20318;-73
2023/04/14 13:18:15;;;;;;;;;;;15.40;95.20;;;;;;4920006;29;19993;-73
2023/04/14 13:20:40;;;;;;;;;;;15.30;95.70;;;;;;4919284;29;19915;-73
2023/04/14 13:23:06;;;;;;;;;;;15.10;94.50;;;;;;4939699;29;19922;-73
2023/04/14 13:25:32;;;;;;;;;;;14.90;94.70;;;;;;4922696;29;19923;-73
2023/04/14 13:27:57;;;;;;;;;;;14.80;93.80;;;;;;4919838;29;19965;-73
2023/04/14 13:30:23;;;;;;;;;;;14.90;94.20;;;;;;4926576;29;19973;-73
2023/04/14 13:32:49;;;;;;;;;;;15.20;94.60;;;;;;4944638;29;20057;-73
2023/04/14 13:35:14;;;;;;;;;;;15.60;94.20;;;;;;4940102;29;19918;-73
2023/04/14 13:37:41;;;;;;;;;;;15.80;93.40;;;;;;4910940;29;20009;-73
2023/04/14 13:40:07;;;;;;;;;;;15.90;91.60;;;;;;4925031;29;19914;-74
2023/04/14 13:42:33;;;;;;;;;;;15.90;91.90;;;;;;4925207;29;20456;-74
2023/04/14 13:44:58;;;;;;;;;;;15.90;93.00;;;;;;4946282;29;19922;-73
2023/04/14 13:47:24;;;;;;;;;;;16.30;93.50;;;;;;4926314;29;19926;-73
2023/04/14 13:49:50;;;;;;;;;;;16.20;92.30;;;;;;4941316;29;19918;-74
2023/04/14 13:52:15;;;;;;;;;;;16.10;92.30;;;;;;4920618;29;20029;-73
2023/04/14 13:54:41;;;;;;;;;;;15.80;92.40;;;;;;4909020;29;19956;-73
2023/04/14 13:57:07;;;;;;;;;;;15.70;92.40;;;;;;4938573;28;19918;-73
2023/04/14 13:59:32;;;;;;;;;;;15.70;92.90;;;;;;4919255;29;19918;-73
2023/04/14 14:01:58;;;;;;;;;;;15.60;91.20;;;;;;4942552;29;19914;-73
2023/04/14 14:04:24;;;;;;;;;;;15.40;90.60;;;;;;4933989;29;19910;-73
2023/04/14 14:06:49;;;;;;;;;;;15.20;91.30;;;;;;4939048;29;20008;-73
2023/04/14 14:09:15;;;;;;;;;;;15.60;91.70;;;;;;4924199;29;19925;-74
2023/04/14 14:11:43;;;;;;;;;;;16.00;92.70;;;;;;4941806;29;20326;-74
2023/04/14 14:14:09;;;;;;;;;;;16.50;92.10;;;;;;4921357;29;19910;-74
2023/04/14 14:16:35;;;;;;;;;;;16.80;90.80;;;;;;4930350;29;20429;-74
2023/04/14 14:19:04;;;;;;;;;;;16.70;87.20;;;;;;4916611;29;19922;-74
2023/04/14 14:21:30;;;;;;;;;;;16.80;89.90;;;;;;4938212;29;19973;-74